Time;durP1;ratioP1;P1;durP2;ratioP2;P2;SDS_P1;SDS_P2;PMS_P1;PMS_P2;Temp;Humidity;BMP_temperature;BMP_pressure;BME280_temperature;BME280_humidity;BME280_pressure;Samples;Min_cycle;Max_cycle;Signal;HPM_P1;HPM_P2
2022/05/21 00:01:53;;;;;;;29.33;15.20;;;11.70;99.90;;;;;;4963547;28;20069;-91
2022/05/21 00:04:19;;;;;;;34.80;15.43;;;11.80;99.90;;;;;;4948576;28;20046;-91
2022/05/21 00:06:47;;;;;;;28.95;16.13;;;12.20;99.90;;;;;;4965535;28;20047;-91
2022/05/21 00:09:20;;;;;;;29.77;16.05;;;12.10;99.90;;;;;;4981331;28;20039;-91
2022/05/21 00:11:54;;;;;;;29.15;16.50;;;11.70;99.90;;;;;;4980300;28;20046;-92
2022/05/21 00:14:21;;;;;;;31.48;17.25;;;11.80;99.90;;;;;;4966256;28;20046;-91
2022/05/21 00:16:50;;;;;;;25.90;16.20;;;11.90;99.90;;;;;;4965695;28;20137;-91
2022/05/21 00:19:16;;;;;;;26.55;15.73;;;11.90;99.90;;;;;;4966154;28;20039;-91
2022/05/21 00:21:43;;;;;;;30.08;15.02;;;11.90;99.90;;;;;;4963740;28;20058;-91
2022/05/21 00:24:09;;;;;;;31.63;15.60;;;12.40;99.90;;;;;;4962332;28;20391;-91
2022/05/21 00:26:39;;;;;;;29.23;15.85;;;12.10;99.90;;;;;;4979405;28;20046;-91
2022/05/21 00:29:10;;;;;;;28.02;13.85;;;12.10;99.90;;;;;;4962229;28;20097;-92
2022/05/21 00:31:36;;;;;;;23.20;13.00;;;12.30;99.90;;;;;;4986452;23;20506;-90
2022/05/21 00:34:02;;;;;;;21.45;12.55;;;12.30;99.90;;;;;;4980690;28;20047;-90
2022/05/21 00:36:29;;;;;;;26.50;12.82;;;12.60;99.90;;;;;;4997099;28;20050;-92
2022/05/21 00:38:58;;;;;;;21.70;10.65;;;12.30;99.90;;;;;;4981213;28;20043;-91
2022/05/21 00:41:24;;;;;;;26.92;11.27;;;12.40;99.90;;;;;;4981199;28;20046;-91
2022/05/21 00:43:56;;;;;;;17.90;10.10;;;13.10;99.90;;;;;;4997199;28;20046;-90
2022/05/21 00:46:29;;;;;;;24.25;10.30;;;12.70;99.90;;;;;;4988510;23;20069;-91
2022/05/21 00:49:13;;;;;;;17.35;9.63;;;12.50;99.90;;;;;;4980559;28;20096;-87
2022/05/21 00:52:07;;;;;;;18.27;10.00;;;12.50;99.90;;;;;;4981501;28;20124;-90
2022/05/21 00:54:40;;;;;;;21.75;9.63;;;12.50;99.90;;;;;;4980501;28;20038;-90
2022/05/21 00:57:16;;;;;;;21.10;10.55;;;12.70;99.90;;;;;;4996017;28;20054;-89
2022/05/21 00:59:49;;;;;;;18.25;10.05;;;12.70;99.90;;;;;;4980490;28;20058;-90
2022/05/21 01:02:22;;;;;;;26.65;10.65;;;12.50;99.90;;;;;;4980530;28;20051;-89
2022/05/21 01:04:49;;;;;;;23.33;10.25;;;12.60;99.90;;;;;;4996028;28;20613;-89
2022/05/21 01:07:15;;;;;;;20.42;10.27;;;12.60;99.90;;;;;;4995607;28;20131;-90
2022/05/21 01:09:47;;;;;;;23.88;11.30;;;12.60;99.90;;;;;;4979548;28;20424;-89
2022/05/21 01:12:23;;;;;;;21.05;11.60;;;12.60;99.90;;;;;;4979380;28;20053;-90
2022/05/21 01:14:54;;;;;;;18.48;10.43;;;12.60;99.90;;;;;;4996098;28;20046;-89
2022/05/21 01:17:21;;;;;;;23.23;12.25;;;13.20;99.90;;;;;;4997377;28;20062;-89
2022/05/21 01:20:11;;;;;;;23.05;10.70;;;12.60;99.90;;;;;;4979378;28;20130;-89
2022/05/21 01:22:46;;;;;;;23.27;11.70;;;12.60;99.90;;;;;;4996008;28;20046;-89
2022/05/21 01:25:17;;;;;;;21.88;11.93;;;12.60;99.90;;;;;;4979894;28;20482;-87
2022/05/21 01:27:44;;;;;;;23.77;11.75;;;12.80;99.90;;;;;;4979854;28;20084;-90
2022/05/21 01:30:13;;;;;;;19.27;9.30;;;12.70;99.90;;;;;;4979791;28;20053;-89
2022/05/21 01:32:39;;;;;;;23.92;7.90;;;12.70;99.90;;;;;;4979253;28;20053;-90
2022/05/21 01:35:06;;;;;;;18.90;7.78;;;12.70;99.90;;;;;;4979367;28;20402;-90
2022/05/21 01:37:33;;;;;;;20.00;7.95;;;12.80;99.90;;;;;;4996368;28;20042;-89
2022/05/21 01:39:58;;;;;;;19.77;7.65;;;12.80;99.90;;;;;;4979712;28;20050;-88
2022/05/21 01:42:24;;;;;;;22.02;7.78;;;13.10;99.90;;;;;;4978952;28;20397;-88
2022/05/21 01:44:52;;;;;;;23.30;8.00;;;13.20;99.90;;;;;;4979816;28;20046;-90
2022/05/21 01:47:19;;;;;;;20.63;7.28;;;13.10;99.90;;;;;;4984328;28;20109;-88
2022/05/21 01:49:44;;;;;;;21.42;7.28;;;13.80;99.90;;;;;;4981669;28;20129;-89
2022/05/21 01:52:12;;;;;;;15.10;5.80;;;12.90;99.90;;;;;;4982235;28;20077;-87
2022/05/21 01:54:38;;;;;;;15.25;5.88;;;12.90;99.90;;;;;;4997619;28;20540;-88
2022/05/21 01:57:06;;;;;;;17.23;6.10;;;12.80;99.90;;;;;;4997866;28;20081;-89
2022/05/21 01:59:32;;;;;;;17.80;5.50;;;14.10;99.90;;;;;;4981551;28;20042;-87
2022/05/21 02:02:00;;;;;;;17.15;6.00;;;12.90;99.90;;;;;;4997635;28;20117;-87
2022/05/21 02:04:25;;;;;;;21.55;6.30;;;13.10;99.90;;;;;;4997270;28;20049;-88
2022/05/21 02:06:51;;;;;;;21.60;5.75;;;12.90;99.90;;;;;;4982881;28;20042;-88
2022/05/21 02:09:17;;;;;;;18.55;5.57;;;12.90;99.90;;;;;;4997628;28;20184;-88
2022/05/21 02:11:45;;;;;;;18.38;6.10;;;13.10;99.90;;;;;;4997649;28;20406;-89
2022/05/21 02:14:14;;;;;;;20.58;5.78;;;13.00;99.90;;;;;;4998248;28;20481;-88
2022/05/21 02:16:40;;;;;;;24.52;6.22;;;13.00;99.90;;;;;;4982471;28;20025;-89
2022/05/21 02:19:07;;;;;;;25.23;6.15;;;13.00;99.90;;;;;;4981546;28;20046;-88
2022/05/21 02:21:36;;;;;;;17.17;5.72;;;13.00;99.90;;;;;;4998452;28;20052;-88
2022/05/21 02:24:02;;;;;;;20.48;6.40;;;13.10;99.90;;;;;;4981673;28;20045;-89
2022/05/21 02:26:38;;;;;;;17.67;4.93;;;13.00;99.90;;;;;;5005483;28;20077;-88
2022/05/21 02:29:05;;;;;;;14.48;4.97;;;13.50;99.90;;;;;;4985502;28;20145;-87
2022/05/21 02:31:32;;;;;;;19.88;5.00;;;13.20;99.90;;;;;;4997659;28;20038;-86
2022/05/21 02:33:58;;;;;;;17.73;4.70;;;13.00;99.90;;;;;;4981045;28;20405;-88
2022/05/21 02:39:25;;;;;;;16.25;5.05;;;13.00;99.90;;;;;;4997755;28;20052;-88
2022/05/21 02:39:25;;;;;;;23.38;5.55;;;12.90;99.90;;;;;;4997418;28;20050;-88
2022/05/21 02:41:51;;;;;;;21.40;5.35;;;13.10;99.90;;;;;;4982262;28;20137;-88
2022/05/21 02:44:17;;;;;;;21.15;5.20;;;13.20;99.90;;;;;;4982127;28;20099;-88
2022/05/21 02:46:43;;;;;;;21.50;5.20;;;12.90;99.90;;;;;;4978105;28;20433;-87
2022/05/21 02:49:09;;;;;;;17.60;4.97;;;13.20;99.90;;;;;;4994245;28;20054;-88
2022/05/21 02:51:35;;;;;;;15.73;4.88;;;13.10;99.90;;;;;;4977496;28;20108;-87
2022/05/21 02:54:00;;;;;;;19.77;4.55;;;12.90;99.90;;;;;;4993535;28;20082;-89
2022/05/21 02:56:29;;;;;;;14.02;5.28;;;12.90;99.90;;;;;;4994227;28;20130;-88
2022/05/21 02:58:55;;;;;;;41.80;7.53;;;12.90;99.90;;;;;;4984644;28;20077;-91
2022/05/21 03:01:20;;;;;;;17.05;4.70;;;13.10;99.90;;;;;;4986354;28;20046;-91
2022/05/21 03:03:49;;;;;;;22.67;5.15;;;12.90;99.90;;;;;;4998888;28;20445;-91
2022/05/21 03:06:15;;;;;;;15.88;4.40;;;12.90;99.90;;;;;;5002356;28;20050;-91
2022/05/21 03:11:30;;;;;;;15.13;3.97;;;13.30;99.90;;;;;;4984905;28;20137;-90
2022/05/21 03:13:56;;;;;;;19.15;4.15;;;12.80;99.90;;;;;;5000980;28;20042;-91
2022/05/21 03:16:22;;;;;;;21.73;5.38;;;12.80;99.90;;;;;;5001408;28;20481;-91
2022/05/21 03:18:47;;;;;;;13.48;3.90;;;13.20;99.90;;;;;;5006304;28;20078;-92
2022/05/21 03:21:14;;;;;;;17.70;4.38;;;12.80;99.90;;;;;;5000367;28;20060;-91
2022/05/21 03:23:40;;;;;;;18.08;4.13;;;13.10;99.90;;;;;;4996984;28;20137;-90
2022/05/21 03:26:06;;;;;;;16.63;3.70;;;12.80;99.90;;;;;;4998084;28;20082;-92
2022/05/21 03:28:32;;;;;;;16.58;4.30;;;13.00;99.90;;;;;;5008888;28;20068;-91
2022/05/21 03:30:57;;;;;;;20.40;4.88;;;12.90;99.90;;;;;;5010111;28;20047;-91
2022/05/21 03:33:25;;;;;;;12.20;3.40;;;12.80;99.90;;;;;;4986687;28;20050;-91
2022/05/21 03:35:50;;;;;;;19.98;3.90;;;12.80;99.90;;;;;;4997907;28;20402;-91
2022/05/21 03:38:19;;;;;;;15.70;3.85;;;12.80;99.90;;;;;;4981274;28;20487;-91
2022/05/21 03:40:45;;;;;;;15.48;4.15;;;12.80;99.90;;;;;;4996231;28;20073;-90
2022/05/21 03:43:16;;;;;;;15.77;3.50;;;12.80;99.90;;;;;;4996639;28;20116;-91
2022/05/21 03:45:41;;;;;;;17.73;4.25;;;13.00;99.90;;;;;;4978858;28;20529;-91
2022/05/21 03:48:07;;;;;;;16.55;4.25;;;13.20;99.90;;;;;;4994050;28;20093;-91
2022/05/21 03:50:33;;;;;;;20.00;3.80;;;12.70;99.90;;;;;;4994167;28;20086;-90
2022/05/21 03:53:02;;;;;;;12.95;4.03;;;12.70;99.90;;;;;;4995839;28;20219;-90
2022/05/21 03:55:30;;;;;;;13.00;4.05;;;12.90;99.90;;;;;;4980006;28;20105;-90
2022/05/21 03:58:05;;;;;;;18.17;3.90;;;13.10;99.90;;;;;;4980803;28;20049;-89
2022/05/21 04:00:32;;;;;;;14.25;3.42;;;12.70;99.90;;;;;;4978751;28;20042;-90
2022/05/21 04:02:59;;;;;;;13.38;3.63;;;12.70;99.90;;;;;;4981689;28;20042;-91
2022/05/21 04:05:25;;;;;;;16.85;4.03;;;12.80;99.90;;;;;;4980771;28;20042;-91
2022/05/21 04:07:50;;;;;;;15.85;3.83;;;13.30;99.90;;;;;;4984019;28;20042;-91
2022/05/21 04:10:17;;;;;;;14.23;4.10;;;12.80;99.90;;;;;;4994623;28;20051;-90
2022/05/21 04:12:45;;;;;;;17.30;3.88;;;12.90;99.90;;;;;;4999374;28;20042;-90
2022/05/21 04:15:11;;;;;;;19.02;3.95;;;13.20;99.90;;;;;;5000899;28;20042;-90
2022/05/21 04:17:37;;;;;;;12.68;3.83;;;12.80;99.90;;;;;;5001908;28;20042;-90
2022/05/21 04:20:07;;;;;;;14.73;3.67;;;12.70;99.90;;;;;;4982787;28;20042;-90
2022/05/21 04:22:33;;;;;;;13.80;3.50;;;12.70;99.90;;;;;;4999268;28;20050;-91
2022/05/21 04:24:59;;;;;;;17.30;4.97;;;12.70;99.90;;;;;;4984656;28;20038;-91
2022/05/21 04:27:29;;;;;;;12.32;3.10;;;12.70;99.90;;;;;;5003703;28;20429;-90
2022/05/21 04:29:55;;;;;;;16.98;3.42;;;12.70;99.90;;;;;;4985052;28;20082;-90
2022/05/21 04:32:21;;;;;;;13.20;3.75;;;12.70;99.90;;;;;;5003869;28;20054;-90
2022/05/21 04:34:47;;;;;;;10.90;3.65;;;12.70;99.90;;;;;;5000542;28;20043;-91
2022/05/21 04:37:12;;;;;;;15.18;3.92;;;12.70;99.90;;;;;;5000898;28;20042;-91
2022/05/21 04:39:38;;;;;;;15.98;3.47;;;12.80;99.90;;;;;;5010620;28;20045;-89
2022/05/21 04:42:04;;;;;;;13.45;3.53;;;12.80;99.90;;;;;;5015282;28;20133;-90
2022/05/21 04:44:35;;;;;;;15.20;3.80;;;12.80;99.90;;;;;;5000487;28;20046;-90
2022/05/21 04:47:03;;;;;;;14.02;3.50;;;12.80;99.90;;;;;;4985737;28;20046;-91
2022/05/21 04:49:28;;;;;;;14.35;3.47;;;12.90;99.90;;;;;;5002125;28;20050;-90
2022/05/21 04:51:54;;;;;;;20.05;3.70;;;13.00;99.90;;;;;;5004438;28;20120;-90
2022/05/21 04:54:20;;;;;;;12.25;3.58;;;13.00;99.90;;;;;;5002785;28;20098;-90
2022/05/21 04:56:45;;;;;;;16.95;3.97;;;13.00;99.90;;;;;;4998437;28;20053;-91
2022/05/21 04:59:12;;;;;;;15.75;3.45;;;13.40;99.90;;;;;;4981649;28;20084;-90
2022/05/21 05:01:40;;;;;;;12.88;3.00;;;13.60;99.90;;;;;;5000746;28;20046;-91
2022/05/21 05:04:07;;;;;;;14.90;3.58;;;13.10;99.90;;;;;;4997232;28;20097;-91
2022/05/21 05:06:33;;;;;;;13.95;3.55;;;13.10;99.90;;;;;;4996487;28;20051;-90
2022/05/21 05:08:59;;;;;;;11.57;3.30;;;13.10;99.90;;;;;;4997358;28;20047;-90
2022/05/21 05:11:44;;;;;;;10.90;2.92;;;13.20;99.90;;;;;;4996259;28;20045;-90
2022/05/21 05:14:10;;;;;;;12.95;3.33;;;13.10;99.90;;;;;;4990921;28;20042;-87
2022/05/21 05:16:36;;;;;;;15.75;3.83;;;13.30;99.90;;;;;;4992551;28;20084;-88
2022/05/21 05:19:02;;;;;;;15.93;3.30;;;13.20;99.90;;;;;;5009790;28;20106;-88
2022/05/21 05:21:28;;;;;;;12.73;2.70;;;13.20;99.90;;;;;;4992498;28;20038;-89
2022/05/21 05:23:53;;;;;;;14.05;3.08;;;13.20;99.90;;;;;;4997804;28;20043;-89
2022/05/21 05:26:26;;;;;;;14.55;3.47;;;;;;;;;;4979371;28;20065;-90
2022/05/21 05:28:52;;;;;;;15.25;3.05;;;;;;;;;;4998701;28;20046;-89
2022/05/21 05:31:18;;;;;;;15.82;3.83;;;;;;;;;;5000740;28;20069;-88
2022/05/21 05:33:44;;;;;;;15.70;3.42;;;;;;;;;;4997779;28;20086;-89
2022/05/21 05:36:10;;;;;;;15.40;3.17;;;;;;;;;;4998929;28;20399;-88
2022/05/21 05:38:36;;;;;;;17.92;3.65;;;;;;;;;;4997486;28;20048;-88
2022/05/21 05:41:02;;;;;;;10.93;3.15;;;;;;;;;;4996147;28;20046;-88
2022/05/21 05:43:30;;;;;;;13.50;3.15;;;;;;;;;;4995100;28;20390;-90
2022/05/21 05:45:59;;;;;;;14.70;2.85;;;;;;;;;;4994941;28;20522;-90
2022/05/21 05:48:25;;;;;;;11.88;2.65;;;;;;;;;;4995014;28;20046;-88
2022/05/21 05:50:51;;;;;;;11.35;3.25;;;;;;;;;;4978509;28;20049;-90
2022/05/21 05:53:18;;;;;;;12.10;3.20;;;;;;;;;;4995125;28;20050;-88
2022/05/21 05:55:44;;;;;;;16.02;2.90;;;;;;;;;;4994698;28;20138;-90
2022/05/21 06:01:07;;;;;;;12.13;2.95;;;;;;;;;;4994373;28;20046;-89
2022/05/21 06:03:34;;;;;;;10.00;2.55;;;;;;;;;;4978602;28;20054;-90
2022/05/21 06:06:01;;;;;;;14.05;2.97;;;;;;;;;;4978212;28;20085;-89
2022/05/21 06:08:27;;;;;;;10.25;2.45;;;;;;;;;;4994711;28;20050;-90
2022/05/21 06:10:53;;;;;;;7.72;2.40;;;;;;;;;;4998323;28;20042;-90
2022/05/21 06:13:20;;;;;;;6.72;2.25;;;;;;;;;;4995293;28;20053;-90
2022/05/21 06:15:47;;;;;;;9.90;2.42;;;;;;;;;;4995508;28;20442;-90
2022/05/21 06:18:14;;;;;;;9.90;2.33;;;;;;;;;;4997335;28;20126;-91
2022/05/21 06:20:42;;;;;;;13.15;2.50;;;;;;;;;;4997011;28;20054;-91
2022/05/21 06:23:08;;;;;;;12.18;2.20;;;;;;;;;;4981001;28;20043;-90
2022/05/21 06:25:34;;;;;;;14.57;2.60;;;;;;;;;;4995555;28;20104;-90
2022/05/21 06:28:00;;;;;;;7.68;2.17;;;;;;;;;;4978244;28;20046;-91
2022/05/21 06:30:27;;;;;;;10.65;2.33;;;;;;;;;;4993742;28;20042;-89
2022/05/21 06:32:53;;;;;;;9.27;2.33;;;;;;;;;;4993772;28;20050;-89
2022/05/21 06:35:19;;;;;;;6.07;1.90;;;;;;;;;;4977454;28;20137;-89
2022/05/21 06:37:46;;;;;;;7.82;2.00;;;;;;;;;;4976550;28;20054;-89
2022/05/21 06:40:13;;;;;;;10.10;2.83;;;;;;;;;;4993422;28;20077;-90
2022/05/21 06:42:41;;;;;;;13.25;2.78;;;;;;;;;;4993471;28;20050;-89
2022/05/21 06:45:07;;;;;;;7.20;2.00;;;;;;;;;;4994021;28;20173;-90
2022/05/21 06:47:33;;;;;;;11.15;2.55;;;;;;;;;;4993514;28;20058;-90
2022/05/21 06:49:59;;;;;;;10.70;2.17;;;;;;;;;;4993597;28;20470;-91
2022/05/21 06:52:26;;;;;;;12.02;2.42;;;;;;;;;;4994163;28;20497;-89
2022/05/21 06:54:53;;;;;;;8.10;2.03;;;;;;;;;;5001015;28;20078;-90
2022/05/21 06:57:20;;;;;;;10.07;2.50;;;;;;;;;;4994154;28;20050;-90
2022/05/21 06:59:47;;;;;;;8.95;2.30;;;;;;;;;;4993119;28;20053;-87
2022/05/21 07:02:13;;;;;;;11.13;2.38;;;;;;;;;;4994059;28;20050;-91
2022/05/21 07:07:32;;;;;;;13.02;2.35;;;;;;;;;;4993398;28;20046;-90
2022/05/21 07:10:07;;;;;;;5.88;2.03;;;;;;;;;;4993470;28;20044;-89
2022/05/21 07:12:34;;;;;;;9.27;2.42;;;;;;;;;;4993167;28;20133;-88
2022/05/21 07:15:01;;;;;;;8.13;2.25;;;;;;;;;;4977639;28;20088;-89
2022/05/21 07:17:27;;;;;;;14.13;3.30;;;;;;;;;;4993558;28;20395;-90
2022/05/21 07:19:53;;;;;;;9.82;2.60;;;;;;;;;;4977072;28;20133;-90
2022/05/21 07:22:19;;;;;;;15.50;2.72;;;;;;;;;;4993417;28;20050;-90
2022/05/21 07:24:45;;;;;;;9.50;2.35;;;;;;;;;;4993668;28;20081;-90
2022/05/21 07:27:17;;;;;;;9.38;2.38;;;;;;;;;;4993311;28;20046;-89
2022/05/21 07:29:44;;;;;;;10.43;2.05;;;;;;;;;;4976993;28;20054;-90
2022/05/21 07:32:36;;;;;;;10.80;2.97;;;;;;;;;;4993233;28;20111;-90
2022/05/21 07:35:08;;;;;;;10.43;1.90;;;;;;;;;;4991601;28;20458;-89
2022/05/21 07:37:35;;;;;;;13.02;2.80;;;;;;;;;;4978447;28;20046;-90
2022/05/21 07:40:02;;;;;;;8.90;2.38;;;;;;;;;;4993040;28;20056;-90
2022/05/21 07:42:32;;;;;;;11.60;2.25;;;;;;;;;;4993192;28;20364;-89
2022/05/21 07:44:59;;;;;;;10.40;2.30;;;;;;;;;;4992961;28;20046;-88
2022/05/21 07:47:25;;;;;;;9.27;2.05;;;;;;;;;;4993222;28;20514;-89
2022/05/21 07:49:52;;;;;;;9.30;2.55;;;;;;;;;;4996775;28;20126;-89
2022/05/21 07:52:21;;;;;;;12.02;2.25;;;;;;;;;;4980467;28;20046;-89
2022/05/21 07:54:47;;;;;;;8.93;2.25;;;;;;;;;;4996393;28;20053;-89
2022/05/21 07:57:16;;;;;;;8.00;2.15;;;;;;;;;;4980568;28;20459;-89
2022/05/21 07:59:42;;;;;;;9.73;2.22;;;;;;;;;;4995665;28;20103;-90
2022/05/21 08:02:12;;;;;;;13.65;2.30;;;;;;;;;;4995979;28;20066;-89
2022/05/21 08:04:38;;;;;;;8.55;2.10;;;;;;;;;;4996247;28;20046;-89
2022/05/21 08:07:04;;;;;;;10.30;2.00;;;;;;;;;;4996331;28;20073;-88
2022/05/21 08:09:30;;;;;;;11.25;2.30;;;;;;;;;;4980185;28;20050;-89
2022/05/21 08:12:07;;;;;;;8.15;2.15;;;;;;;;;;4996122;28;20046;-89
2022/05/21 08:14:33;;;;;;;9.30;2.35;;;;;;;;;;4996484;28;20050;-89
2022/05/21 08:17:00;;;;;;;9.30;2.13;;;;;;;;;;4996517;28;20053;-90
2022/05/21 08:19:26;;;;;;;9.90;2.20;;;;;;;;;;4997790;28;20050;-90
2022/05/21 08:21:53;;;;;;;12.20;2.38;;;;;;;;;;4979912;28;20168;-89
2022/05/21 08:27:26;;;;;;;9.70;2.25;;;;;;;;;;4959473;28;20572;-90
2022/05/21 08:29:52;;;;;;;7.60;2.25;;;;;;;;;;4943352;28;20490;-92
2022/05/21 08:32:18;;;;;;;8.43;2.13;;;;;;;;;;4959653;28;20058;-90
2022/05/21 08:34:45;;;;;;;7.45;2.10;;;;;;;;;;4959344;28;20046;-88
2022/05/21 08:37:11;;;;;;;7.30;2.00;;;;;;;;;;4943966;28;20046;-89
2022/05/21 08:39:37;;;;;;;11.90;2.35;;;;;;;;;;4959694;28;20502;-90
2022/05/21 08:42:13;;;;;;;10.95;2.30;;;;;;;;;;4943149;28;20047;-89
2022/05/21 08:44:39;;;;;;;;;;;;;;;;;;4959995;28;20091;-88
2022/05/21 08:47:05;;;;;;;9.93;1.90;;;;;;;;;;4943163;28;19968;-89
2022/05/21 08:49:36;;;;;;;7.38;2.45;;;;;;;;;;4959139;28;20441;-90
2022/05/21 08:52:02;;;;;;;10.18;2.65;;;;;;;;;;4959325;28;20141;-90
2022/05/21 08:54:32;;;;;;;7.70;2.25;;;;;;;;;;4959151;28;20138;-89
2022/05/21 08:57:02;;;;;;;8.45;2.30;;;;;;;;;;4959693;28;20069;-89
2022/05/21 08:59:32;;;;;;;7.35;2.33;;;;;;;;;;4994218;28;20046;-89
2022/05/21 09:01:58;;;;;;;9.82;2.40;;;;;;;;;;4995201;28;20050;-88
2022/05/21 09:04:26;;;;;;;14.25;2.55;;;;;;;;;;4996387;28;20471;-88
2022/05/21 09:06:56;;;;;;;9.80;2.40;;;;;;;;;;4980794;28;20082;-88
2022/05/21 09:09:41;;;;;;;10.25;2.65;;;;;;;;;;4998138;28;20073;-89
2022/05/21 09:12:19;;;;;;;10.23;2.20;;;;;;;;;;4995654;28;20402;-89
2022/05/21 09:14:47;;;;;;;6.93;2.10;;;;;;;;;;4979081;28;20324;-88
2022/05/21 09:17:15;;;;;;;10.80;1.92;;;;;;;;;;4994975;28;20490;-88
2022/05/21 09:19:45;;;;;;;9.00;2.20;;;;;;;;;;4996200;28;20465;-89
2022/05/21 09:22:13;;;;;;;12.57;1.98;;;;;;;;;;4995138;28;20482;-88
2022/05/21 09:24:45;;;;;;;6.85;1.80;;;;;;;;;;4995230;28;20046;-89
2022/05/21 09:27:27;;;;;;;6.25;2.03;;;;;;;;;;4994892;28;20054;-87
2022/05/21 09:29:55;;;;;;;11.63;2.08;;;;;;;;;;4994715;28;20093;-88
2022/05/21 09:32:22;;;;;;;7.13;1.70;;;;;;;;;;4962654;28;20049;-90
2022/05/21 09:35:04;;;;;;;6.07;1.63;;;;;;;;;;4978639;28;20500;-89
2022/05/21 09:37:30;;;;;;;4.85;1.75;;;;;;;;;;4978570;28;20046;-89
2022/05/21 09:39:56;;;;;;;8.02;2.05;;;;;;;;;;4994441;28;20538;-89
2022/05/21 09:45:23;;;;;;;6.45;1.67;;;;;;;;;;4994485;28;20047;-88
2022/05/21 09:47:50;;;;;;;7.20;1.67;;;;;;;;;;4994646;28;20085;-89
2022/05/21 09:50:20;;;;;;;7.82;2.00;;;;;;;;;;4994448;28;20137;-90
2022/05/21 09:52:49;;;;;;;10.98;2.15;;;;;;;;;;4978253;28;20125;-89
2022/05/21 09:55:28;;;;;;;9.65;2.20;;;;;;;;;;4994319;28;20093;-89
2022/05/21 09:58:21;;;;;;;7.72;2.30;;;;;;;;;;4977948;28;20046;-88
2022/05/21 10:00:53;;;;;;;11.70;2.70;;;;;;;;;;4991446;28;20066;-90
2022/05/21 10:03:34;;;;;;;9.50;2.10;;;;;;;;;;4994227;28;20053;-89
2022/05/21 10:06:01;;;;;;;8.77;2.65;;;;;;;;;;4994535;28;20136;-90
2022/05/21 10:11:28;;;;;;;7.18;2.25;;;;;;;;;;4993924;28;20090;-90
2022/05/21 10:14:01;;;;;;;6.30;1.67;;;;;;;;;;4994010;28;20074;-89
2022/05/21 10:16:32;;;;;;;8.20;2.08;;;;;;;;;;4994121;28;20077;-88
2022/05/21 10:19:02;;;;;;;8.10;2.20;;;;;;;;;;4994006;28;20053;-92
2022/05/21 10:21:47;;;;;;;10.27;2.20;;;;;;;;;;4977897;28;20124;-89
2022/05/21 10:24:19;;;;;;;10.93;2.38;;;;;;;;;;4993922;28;20438;-88
2022/05/21 10:26:55;;;;;;;8.27;2.00;;;;;;;;;;4994845;28;20061;-88
2022/05/21 10:29:40;;;;;;;7.97;2.00;;;;;;;;;;4977765;28;20053;-88
2022/05/21 10:32:07;;;;;;;8.85;2.58;;;;;;;;;;4993836;28;20129;-89
2022/05/21 10:34:54;;;;;;;10.35;2.17;;;;;;;;;;4993955;28;20127;-88
2022/05/21 10:37:31;;;;;;;11.35;2.15;;;;;;;;;;4993309;28;20046;-89
2022/05/21 10:40:00;;;;;;;7.97;2.33;;;;;;;;;;4977228;28;20047;-88
2022/05/21 10:42:42;;;;;;;9.05;1.92;;;;;;;;;;4993728;28;20073;-89
2022/05/21 10:45:20;;;;;;;7.15;2.05;;;;;;;;;;4993762;28;20544;-90
2022/05/21 10:48:07;;;;;;;9.35;2.35;;;;;;;;;;4993554;28;20058;-89
2022/05/21 10:50:54;;;;;;;11.15;1.90;;;;;;;;;;4993509;28;20050;-89
2022/05/21 10:53:23;;;;;;;6.43;1.60;;;;;;;;;;4977370;28;20050;-89
2022/05/21 10:56:02;;;;;;;5.72;1.58;;;;;;;;;;4993569;28;20046;-90
2022/05/21 10:58:58;;;;;;;7.45;1.60;;;;;;;;;;4977251;28;20425;-90
2022/05/21 11:01:35;;;;;;;7.32;1.83;;;;;;;;;;4934296;29;20106;-88
2022/05/21 11:04:10;;;;;;;7.05;1.65;;;;;;;;;;4918593;29;20455;-90
2022/05/21 11:07:03;;;;;;;10.73;2.10;;;;;;;;;;4918712;29;20063;-90
2022/05/21 11:09:35;;;;;;;6.95;1.90;;;;;;;;;;4932228;29;20139;-90
2022/05/21 11:12:08;;;;;;;8.98;2.00;;;;;;;;;;4918089;29;20067;-92
2022/05/21 11:14:38;;;;;;;7.90;1.90;;;;;;;;;;4918533;29;20048;-90
2022/05/21 11:17:23;;;;;;;9.05;1.80;;;;;;;;;;4918659;29;20143;-89
2022/05/21 11:19:49;;;;;;;11.13;2.50;;;;;;;;;;4918579;29;20519;-90
2022/05/21 11:22:24;;;;;;;7.22;1.70;;;;;;;;;;4918542;29;20054;-89
2022/05/21 11:24:58;;;;;;;12.02;2.20;;;;;;;;;;4909631;29;20444;-88
2022/05/21 11:27:34;;;;;;;7.55;2.08;;;;;;;;;;4923587;29;20054;-90
2022/05/21 11:30:05;;;;;;;8.30;1.73;;;;;;;;;;4922821;29;20111;-88
2022/05/21 11:38:17;;;;;;;9.27;2.58;;;;;;;;;;4971785;28;20140;-89
2022/05/21 11:40:51;;;;;;;7.68;1.70;;;;;;;;;;4980433;28;20050;-88
2022/05/21 11:43:18;;;;;;;8.18;2.40;;;;;;;;;;4980474;28;20053;-88
2022/05/21 11:46:05;;;;;;;12.45;2.50;;;;;;;;;;4997961;28;20052;-89
2022/05/21 11:48:32;;;;;;;7.03;1.85;;;;;;;;;;4999786;28;20144;-89
2022/05/21 11:51:16;;;;;;;9.15;1.75;;;;;;;;;;5000102;28;20139;-89
2022/05/21 11:53:44;;;;;;;9.63;1.92;;;;;;;;;;5001663;28;20079;-87
2022/05/21 11:56:12;;;;;;;7.68;1.60;;;;;;;;;;5006809;28;20060;-89
2022/05/21 11:59:01;;;;;;;7.03;1.70;;;;;;;;;;5007557;28;20394;-87
2022/05/21 12:01:37;;;;;;;6.03;1.85;;;;;;;;;;4946382;29;20062;-88
2022/05/21 12:04:04;;;;;;;8.43;1.60;;;;;;;;;;4921903;29;20061;-88
2022/05/21 12:06:32;;;;;;;7.15;1.65;;;;;;;;;;4937653;29;20151;-87
2022/05/21 12:09:09;;;;;;;5.55;1.70;;;;;;;;;;4906073;29;20051;-88
2022/05/21 12:11:42;;;;;;;8.02;2.25;;;;;;;;;;4937743;29;20080;-88
2022/05/21 12:14:34;;;;;;;6.13;1.52;;;;;;;;;;4921542;29;20059;-89
2022/05/21 12:17:02;;;;;;;9.25;1.98;;;;;;;;;;4933791;29;20564;-87
2022/05/21 12:19:46;;;;;;;6.32;1.80;;;;;;;;;;4921434;29;20138;-87
2022/05/21 12:22:32;;;;;;;5.40;1.60;;;;;;;;;;4921531;29;20502;-87
2022/05/21 12:24:58;;;;;;;8.40;2.20;;;;;;;;;;4921597;29;20283;-87
2022/05/21 12:27:26;;;;;;;5.50;1.40;;;;;;;;;;4921398;29;20051;-90
2022/05/21 12:30:00;;;;;;;7.13;1.90;;;;;;;;;;4926129;29;20610;-88
2022/05/21 12:32:28;;;;;;;9.10;2.10;;;;;;;;;;5310818;22;20008;-90
2022/05/21 12:34:56;;;;;;;9.23;2.13;;;;;;;;;;5014636;28;20085;-90
2022/05/21 12:37:29;;;;;;;9.02;2.00;;;;;;;;;;5012136;28;20077;-91
2022/05/21 12:40:01;;;;;;;9.88;2.35;;;;;;;;;;5012894;28;20049;-92
2022/05/21 12:42:49;;;;;;;5.78;1.30;;;;;;;;;;5014238;28;20073;-89
2022/05/21 12:45:31;;;;;;;4.97;1.40;;;;;;;;;;5011958;28;20056;-88
2022/05/21 12:48:24;;;;;;;7.22;1.13;;;;;;;;;;5009797;28;20042;-90
2022/05/21 12:50:53;;;;;;;7.25;1.50;;;;;;;;;;5005872;28;20066;-90
2022/05/21 12:53:29;;;;;;;8.15;1.55;;;;;;;;;;4993623;28;20046;-89
2022/05/21 12:56:04;;;;;;;9.57;2.17;;;;;;;;;;5025508;28;20050;-93
2022/05/21 12:58:32;;;;;;;6.28;1.27;;;;;;;;;;5008251;28;20072;-92
2022/05/21 13:01:00;;;;;;;5.65;1.40;;;;;;;;;;4988808;28;20064;-91
2022/05/21 13:03:30;;;;;;;5.22;1.30;;;;;;;;;;4987864;28;20133;-91
2022/05/21 13:05:58;;;;;;;9.40;1.75;;;;;;;;;;4995435;28;20133;-93
2022/05/21 13:08:26;;;;;;;7.10;1.58;;;;;;;;;;5003985;28;20113;-87
2022/05/21 13:11:00;;;;;;;9.02;1.95;;;;;;;;;;5017757;28;20046;-87
2022/05/21 13:13:29;;;;;;;6.70;1.55;;;;;;;;;;4998885;28;20056;-89
2022/05/21 13:15:59;;;;;;;9.05;1.83;;;;;;;;;;4998542;28;20048;-90
2022/05/21 13:18:44;;;;;;;8.65;1.90;;;;;;;;;;4998569;28;20394;-89
2022/05/21 13:21:19;;;;;;;8.52;2.20;;;;;;;;;;4981892;28;20053;-89
2022/05/21 13:23:45;;;;;;;7.85;2.17;;;;;;;;;;4998654;28;20061;-90
2022/05/21 13:26:40;;;;;;;7.50;1.65;;;;;;;;;;4998365;28;20042;-90
2022/05/21 13:29:22;;;;;;;9.35;2.00;;;;;;;;;;4941250;29;20175;-89
2022/05/21 13:31:49;;;;;;;6.65;1.95;;;;;;;;;;4940810;29;20138;-89
2022/05/21 13:34:19;;;;;;;9.93;2.17;;;;;;;;;;4940976;29;20059;-89
2022/05/21 13:36:48;;;;;;;11.95;2.55;;;;;;;;;;4941198;29;20047;-88
2022/05/21 13:39:20;;;;;;;7.30;2.10;;;;;;;;;;4941120;29;20058;-89
2022/05/21 13:41:46;;;;;;;6.72;1.80;;;;;;;;;;4960361;28;20542;-89
2022/05/21 13:44:13;;;;;;;7.68;1.92;;;;;;;;;;4942388;29;20043;-90
2022/05/21 13:46:40;;;;;;;7.72;1.95;;;;;;;;;;4940473;29;20087;-89
2022/05/21 13:49:12;;;;;;;8.27;2.08;;;;;;;;;;4956872;29;20122;-88
2022/05/21 13:51:39;;;;;;;8.80;1.88;;;;;;;;;;4940762;28;20126;-88
2022/05/21 13:54:05;;;;;;;9.40;1.80;;;;;;;;;;4940696;29;20043;-89
2022/05/21 13:56:41;;;;;;;7.10;1.80;;;;;;;;;;4940485;29;20047;-89
2022/05/21 13:59:23;;;;;;;9.00;1.83;;;;;;;;;;4940684;29;20091;-89
2022/05/21 14:01:56;;;;;;;9.25;2.28;;;;;;;;;;4940291;29;20062;-89
2022/05/21 14:04:30;;;;;;;9.40;2.28;;;;;;;;;;4958919;28;20047;-90
2022/05/21 14:06:56;;;;;;;8.65;2.10;;;;;;;;;;4983234;28;20092;-89
2022/05/21 14:09:23;;;;;;;6.45;1.40;;;;;;;;;;4999342;28;20046;-88
2022/05/21 14:11:54;;;;;;;7.40;1.85;;;;;;;;;;4983086;28;20080;-90
2022/05/21 14:14:22;;;;;;;6.25;1.52;;;;;;;;;;4998828;28;20049;-90
2022/05/21 14:16:49;;;;;;;7.82;1.70;;;;;;;;;;4982825;28;20401;-90
2022/05/21 14:19:18;;;;;;;6.78;1.83;;;;;;;;;;4966705;28;20100;-89
2022/05/21 14:22:04;;;;;;;7.07;1.60;;;;;;;;;;4998912;28;20042;-86
2022/05/21 14:24:31;;;;;;;9.57;1.63;;;;;;;;;;4983060;28;20128;-87
2022/05/21 14:27:02;;;;;;;6.30;1.60;;;;;;;;;;4999261;28;20050;-87